Ellsworth, ME (04605)

11:01 AM EST on February 06, 2016 (GMT -0500)
Peggy Rockefeller Farm | | Change Station
CLOSE
Current Station
Personal Weather Station
Location: Bar Harbor, ME
Elevation: 39 ft
Nearby Weather Stations

Elev 39 ft 44.41 °N, 68.30 °W | Updated 3 seconds ago

Clear
Clear
29.9 °F
Feels Like 24 °F
N
5.6
Wind Variable Wind from WNW
Gusts 9.0 mph

Today
High -- | Low -- °F
--% Chance of Precip.
Yesterday
High -- | Low -- °F
Precip. -- in
Pressure 30.30 in
Visibility 10.0 miles
Clouds Clear
Windchill 24 °F
Dew Point 24 °F
Humidity 79%
Rainfall 0.04 in
Snow Depth Not available.
6:46 AM 4:49 PM
Waning Crescent, 5% visible
METAR KBHB 061535Z 22007KT 10SM CLR M02/M06 A3030 RMK AO1
Pressure 30.30 in
Visibility 10.0 miles
Clouds Clear
Windchill 24 °F
Dew Point 24 °F
Humidity 79%
Rainfall 0.04 in
Snow Depth Not available.
6:46 AM 4:49 PM
Waning Crescent, 5% visible
METAR KBHB 061535Z 22007KT 10SM CLR M02/M06 A3030 RMK AO1

10-Day Weather Forecast

Almanac

Astronomy

Feb. 06, 2016 Rise Set
Actual Time
Civil Twilight
Nautical Twilight
Astronomical Twilight
Moon
Length of Visible Light
Length of Day
Tomorrow will be .
, % of the Moon is Illuminated

Today's Extremes

State Highs State Lows

Community

WunderPhotos

Upload Photos

1,890,997 photos uploaded!

WunderBlog® & News

Nearby

Air Quality

  Air Quality AQ Index Pollutant
Not available.

Snow Depth

Station Depth Elevation

Earthquake Activity

City Distance Mag. Time & Date
Minimum magnitude displayed is 2.5.

Coastal Water Temperatures

Place Temperature

Stations

Nearby Weather Stations

Station Location Temp. Windchill Dew Point Humidity Wind Precip. Elev Updated Type
                   

Watches & Warnings

There are currently no watches in effect.